createdAt,value
2018-02-04T00:01:02.236Z,1.30
2018-02-04T00:03:31.651Z,1.30
2018-02-04T00:06:01.069Z,1.30
2018-02-04T00:08:30.196Z,1.30
2018-02-04T00:11:00.848Z,1.30
2018-02-04T00:13:30.256Z,1.30
2018-02-04T00:15:59.670Z,1.30
2018-02-04T00:18:29.777Z,1.20
2018-02-04T00:20:59.345Z,1.30
2018-02-04T00:23:28.747Z,1.20
2018-02-04T00:25:58.164Z,1.10
2018-02-04T00:28:28.366Z,1.10
2018-02-04T00:30:57.783Z,1.10
2018-02-04T00:33:27.194Z,1.20
2018-02-04T00:35:56.616Z,1.20
2018-02-04T00:38:25.836Z,1.10
2018-02-04T00:40:55.238Z,1.10
2018-02-04T00:43:24.713Z,1.00
2018-02-04T00:45:54.097Z,0.90
2018-02-04T00:48:23.515Z,0.90
2018-02-04T00:50:52.936Z,0.90
2018-02-04T00:53:22.355Z,0.90
2018-02-04T00:55:51.769Z,0.90
2018-02-04T00:58:20.988Z,0.80
2018-02-04T01:00:50.407Z,0.80
2018-02-04T01:03:19.797Z,0.80
2018-02-04T01:05:49.208Z,0.80
2018-02-04T01:08:18.614Z,0.80
2018-02-04T01:10:47.487Z,0.80
2018-02-04T01:13:16.613Z,0.80
2018-02-04T01:15:46.033Z,0.70
2018-02-04T01:18:15.453Z,0.70
2018-02-04T01:20:44.874Z,0.70
2018-02-04T01:23:14.293Z,0.70
2018-02-04T01:25:43.381Z,0.70
2018-02-04T01:28:12.780Z,0.70
2018-02-04T01:30:41.918Z,0.60
2018-02-04T01:33:11.325Z,0.60
2018-02-04T01:35:40.742Z,0.60
2018-02-04T01:38:10.147Z,0.60
2018-02-04T01:40:39.556Z,0.50
2018-02-04T01:43:08.951Z,0.50
2018-02-04T01:45:38.370Z,0.50
2018-02-04T01:48:07.751Z,0.50
2018-02-04T01:50:37.632Z,0.50
2018-02-04T01:53:06.541Z,0.50
2018-02-04T01:55:35.912Z,0.50
2018-02-04T01:58:06.097Z,0.50
2018-02-04T02:00:35.488Z,0.50
2018-02-04T02:03:04.603Z,0.50
2018-02-04T02:05:34.007Z,0.50
2018-02-04T02:08:03.404Z,0.50
2018-02-04T02:10:33.584Z,0.50
2018-02-04T02:13:02.328Z,0.40
2018-02-04T02:15:32.526Z,0.50
2018-02-04T02:18:02.405Z,0.40
2018-02-04T02:20:31.829Z,0.40
2018-02-04T02:23:01.228Z,0.50
2018-02-04T02:25:30.351Z,0.50
2018-02-04T02:27:59.746Z,0.50
2018-02-04T02:30:29.922Z,0.40
2018-02-04T02:32:59.322Z,0.40
2018-02-04T02:35:28.461Z,0.40
2018-02-04T02:37:57.867Z,0.40
2018-02-04T02:40:26.608Z,0.40
2018-02-04T02:42:56.480Z,0.40
2018-02-04T02:45:26.085Z,0.40
2018-02-04T02:47:55.496Z,0.40
2018-02-04T02:50:24.907Z,0.40
2018-02-04T02:52:54.547Z,0.40
2018-02-04T02:55:23.954Z,0.40
2018-02-04T02:57:53.377Z,0.40
2018-02-04T03:00:22.491Z,0.40
2018-02-04T03:02:51.901Z,0.40
2018-02-04T03:05:21.013Z,0.40
2018-02-04T03:07:50.427Z,0.40
2018-02-04T03:10:19.565Z,0.40
2018-02-04T03:12:48.959Z,0.40
2018-02-04T03:15:18.365Z,0.40
2018-02-04T03:17:47.763Z,0.40
2018-02-04T03:20:17.165Z,0.40
2018-02-04T03:22:46.554Z,0.40
2018-02-04T03:25:15.505Z,0.40
2018-02-04T03:27:44.922Z,0.40
2018-02-04T03:30:14.339Z,0.40
2018-02-04T03:32:43.868Z,0.40
2018-02-04T03:35:13.277Z,0.40
2018-02-04T03:37:42.696Z,0.50
2018-02-04T03:40:12.097Z,0.40
2018-02-04T03:42:41.521Z,0.50
2018-02-04T03:45:10.913Z,0.50
2018-02-04T03:47:40.322Z,0.50
2018-02-04T03:50:09.718Z,0.50
2018-02-04T03:52:39.582Z,0.50
2018-02-04T03:55:08.984Z,0.50
2018-02-04T03:57:38.391Z,0.50
2018-02-04T04:00:07.524Z,0.50
2018-02-04T04:02:36.911Z,0.50
2018-02-04T04:05:06.333Z,0.60
2018-02-04T04:07:35.708Z,0.60
2018-02-04T04:10:04.769Z,0.60
2018-02-04T04:12:34.169Z,0.60
2018-02-04T04:15:02.902Z,0.60
2018-02-04T04:17:32.304Z,0.60
2018-02-04T04:20:01.696Z,0.50
2018-02-04T04:22:31.113Z,0.60
2018-02-04T04:25:00.510Z,0.60
2018-02-04T04:27:30.672Z,0.70
2018-02-04T04:30:00.085Z,0.70
2018-02-04T04:32:29.215Z,0.70
2018-02-04T04:34:58.637Z,0.80
2018-02-04T04:37:28.062Z,0.70
2018-02-04T04:39:57.474Z,0.80
2018-02-04T04:42:26.885Z,0.80
2018-02-04T04:44:56.283Z,0.80
2018-02-04T04:47:25.680Z,0.80
2018-02-04T04:49:55.126Z,0.80
2018-02-04T04:52:24.411Z,0.80
2018-02-04T04:54:53.787Z,0.80
2018-02-04T04:57:23.967Z,0.80
2018-02-04T04:59:52.932Z,0.80
2018-02-04T05:02:22.356Z,0.80
2018-02-04T05:04:51.763Z,0.80
2018-02-04T05:07:21.959Z,0.80
2018-02-04T05:09:51.564Z,0.80
2018-02-04T05:12:20.969Z,0.80
2018-02-04T05:14:50.372Z,0.80
2018-02-04T05:17:19.815Z,0.70
2018-02-04T05:19:49.196Z,0.70
2018-02-04T05:22:18.604Z,0.70
2018-02-04T05:24:48.019Z,0.70
2018-02-04T05:27:16.929Z,0.70
2018-02-04T05:29:46.331Z,0.80
2018-02-04T05:32:15.734Z,0.80
2018-02-04T05:34:46.212Z,0.80
2018-02-04T05:37:15.600Z,0.70
2018-02-04T05:39:45.005Z,0.70
2018-02-04T05:42:14.110Z,0.70
2018-02-04T05:44:43.537Z,0.70
2018-02-04T05:47:12.761Z,0.70
2018-02-04T05:49:41.323Z,0.70
2018-02-04T05:52:10.444Z,0.70
2018-02-04T05:54:39.378Z,0.70
2018-02-04T05:57:08.763Z,0.70
2018-02-04T05:59:38.164Z,0.70
2018-02-04T06:02:08.358Z,0.70
2018-02-04T06:04:37.785Z,0.70
2018-02-04T06:07:07.188Z,0.70
2018-02-04T06:09:36.595Z,0.70
2018-02-04T06:12:05.992Z,0.80
2018-02-04T06:14:35.407Z,0.80
2018-02-04T06:17:04.787Z,0.70
2018-02-04T06:19:34.004Z,0.70
2018-02-04T06:22:03.211Z,0.70
2018-02-04T06:24:33.186Z,0.70
2018-02-04T06:27:02.589Z,0.70
2018-02-04T06:29:31.470Z,0.70
2018-02-04T06:32:00.604Z,0.70
2018-02-04T06:34:29.990Z,0.70
2018-02-04T06:36:59.113Z,0.70
2018-02-04T06:39:27.935Z,0.70
2018-02-04T06:41:57.546Z,0.70
2018-02-04T06:44:26.298Z,0.70
2018-02-04T06:46:55.805Z,0.70
2018-02-04T06:49:25.195Z,0.70
2018-02-04T06:51:54.603Z,0.70
2018-02-04T06:54:23.998Z,0.70
2018-02-04T06:56:53.400Z,0.70
2018-02-04T06:59:22.804Z,0.70
2018-02-04T07:01:52.240Z,0.70
2018-02-04T07:04:21.672Z,0.60
2018-02-04T07:06:51.088Z,0.60
2018-02-04T07:09:20.482Z,0.60
2018-02-04T07:11:49.906Z,0.60
2018-02-04T07:14:19.304Z,0.60
2018-02-04T07:16:48.700Z,0.50
2018-02-04T07:19:18.099Z,0.50
2018-02-04T07:21:48.091Z,0.50
2018-02-04T07:24:17.520Z,0.50
2018-02-04T07:26:46.928Z,0.50
2018-02-04T07:29:16.335Z,0.50
2018-02-04T07:31:45.569Z,0.40
2018-02-04T07:34:15.031Z,0.50
2018-02-04T07:36:44.431Z,0.50
2018-02-04T07:39:13.841Z,0.60
2018-02-04T07:41:44.045Z,0.60
2018-02-04T07:44:13.456Z,0.60
2018-02-04T07:46:42.873Z,0.60
2018-02-04T07:49:12.271Z,0.60
2018-02-04T07:51:41.695Z,0.70
2018-02-04T07:54:10.439Z,0.60
2018-02-04T07:56:39.839Z,0.70
2018-02-04T07:59:10.018Z,0.90
2018-02-04T08:01:39.432Z,0.90
2018-02-04T08:04:08.516Z,1.00
2018-02-04T08:06:37.927Z,1.00
2018-02-04T08:09:07.673Z,1.10
2018-02-04T08:11:37.203Z,1.10
2018-02-04T08:14:06.602Z,1.20
2018-02-04T08:16:36.004Z,1.30
2018-02-04T08:19:05.092Z,1.20
2018-02-04T08:21:34.231Z,1.30
2018-02-04T08:24:03.649Z,1.30
2018-02-04T08:26:32.408Z,1.30
2018-02-04T08:29:02.663Z,1.30
2018-02-04T08:31:32.805Z,1.30
2018-02-04T08:34:02.209Z,1.30
2018-02-04T08:36:31.615Z,1.40
2018-02-04T08:39:01.013Z,1.40
2018-02-04T08:41:30.203Z,1.40
2018-02-04T08:43:59.760Z,1.40
2018-02-04T08:46:30.030Z,1.50
2018-02-04T08:48:59.449Z,1.50
2018-02-04T08:51:28.872Z,1.50
2018-02-04T08:53:58.084Z,1.50
2018-02-04T08:56:27.519Z,1.50
2018-02-04T08:58:56.947Z,1.40
2018-02-04T09:01:27.127Z,1.40
2018-02-04T09:03:56.541Z,1.40
2018-02-04T09:06:25.956Z,1.50
2018-02-04T09:08:55.358Z,1.40
2018-02-04T09:11:24.524Z,1.50
2018-02-04T09:13:54.709Z,1.50
2018-02-04T09:16:24.134Z,1.50
2018-02-04T09:18:53.532Z,1.50
2018-02-04T09:21:22.954Z,1.60
2018-02-04T09:23:52.357Z,1.60
2018-02-04T09:26:21.951Z,1.60
2018-02-04T09:28:52.128Z,1.80
2018-02-04T09:31:21.532Z,1.70
2018-02-04T09:33:50.928Z,1.90
2018-02-04T09:36:20.333Z,1.80
2018-02-04T09:38:50.507Z,1.90
2018-02-04T09:41:19.923Z,1.90
2018-02-04T09:43:49.336Z,1.90
2018-02-04T09:46:18.733Z,1.90
2018-02-04T09:48:48.143Z,1.90
2018-02-04T09:51:17.534Z,1.90
2018-02-04T09:53:47.707Z,2.00
2018-02-04T09:56:17.159Z,2.00
2018-02-04T09:58:46.589Z,2.10
2018-02-04T10:01:16.187Z,2.10
2018-02-04T10:03:45.592Z,2.10
2018-02-04T10:06:14.997Z,2.10
2018-02-04T10:08:44.400Z,2.00
2018-02-04T10:11:13.795Z,2.00
2018-02-04T10:13:43.202Z,2.00
2018-02-04T10:16:13.398Z,1.90
2018-02-04T10:18:42.805Z,1.90
2018-02-04T10:21:12.225Z,1.80
2018-02-04T10:23:41.628Z,1.70
2018-02-04T10:26:11.046Z,1.60
2018-02-04T10:28:40.499Z,1.60
2018-02-04T10:31:10.673Z,2.00
2018-02-04T10:33:40.065Z,2.00
2018-02-04T10:36:09.472Z,2.20
2018-02-04T10:38:38.869Z,2.40
2018-02-04T10:41:09.047Z,2.80
2018-02-04T10:43:38.452Z,2.70
2018-02-04T10:46:07.868Z,2.80
2018-02-04T10:48:37.271Z,2.80
2018-02-04T10:51:12.152Z,2.80
2018-02-04T10:53:41.544Z,2.80
2018-02-04T10:56:10.961Z,3.00
2018-02-04T10:58:40.371Z,3.20
2018-02-04T11:01:09.755Z,3.10
2018-02-04T11:03:39.926Z,3.00
2018-02-04T11:06:09.329Z,3.00
2018-02-04T11:08:38.679Z,2.90
2018-02-04T11:11:08.573Z,3.00
2018-02-04T11:13:37.693Z,2.90
2018-02-04T11:16:07.091Z,2.90
2018-02-04T11:18:36.561Z,2.90
2018-02-04T11:21:06.137Z,3.00
2018-02-04T11:23:34.947Z,3.00
2018-02-04T11:26:04.151Z,3.10
2018-02-04T11:28:33.547Z,3.00
2018-02-04T11:31:14.129Z,2.90
2018-02-04T11:33:43.279Z,2.80
2018-02-04T11:36:12.706Z,2.80
2018-02-04T11:38:42.188Z,2.80
2018-02-04T11:41:11.758Z,2.60
2018-02-04T11:43:41.976Z,2.40
2018-02-04T11:46:11.197Z,2.40
2018-02-04T11:48:41.199Z,2.50
2018-02-04T11:51:10.603Z,2.50
2018-02-04T11:53:39.805Z,2.40
2018-02-04T11:56:08.719Z,2.50
2018-02-04T11:58:38.132Z,2.40
2018-02-04T12:01:07.335Z,2.30
2018-02-04T12:03:36.480Z,2.40
2018-02-04T12:06:05.879Z,2.40
2018-02-04T12:08:35.318Z,2.40
2018-02-04T12:11:04.735Z,2.50
2018-02-04T12:13:35.112Z,2.60
2018-02-04T12:16:04.515Z,2.60
2018-02-04T12:18:33.936Z,2.60
2018-02-04T12:21:03.341Z,2.60
2018-02-04T12:23:32.775Z,2.60
2018-02-04T12:26:02.174Z,2.60
2018-02-04T12:28:31.582Z,2.50
2018-02-04T12:31:00.714Z,2.60
2018-02-04T12:33:31.889Z,2.70
2018-02-04T12:36:01.300Z,2.60
2018-02-04T12:38:30.703Z,2.60
2018-02-04T12:41:00.126Z,2.60
2018-02-04T12:43:29.551Z,2.50
2018-02-04T12:45:58.952Z,2.60
2018-02-04T12:48:28.369Z,2.70
2018-02-04T12:50:57.582Z,2.90
2018-02-04T12:53:26.814Z,3.00
2018-02-04T12:55:56.212Z,3.00
2018-02-04T12:58:25.625Z,3.00
2018-02-04T13:00:55.057Z,3.00
2018-02-04T13:03:24.450Z,2.90
2018-02-04T13:05:53.855Z,3.00
2018-02-04T13:08:23.264Z,3.10
2018-02-04T13:10:52.329Z,3.30
2018-02-04T13:13:22.500Z,3.20
2018-02-04T13:15:51.903Z,3.20
2018-02-04T13:18:21.308Z,3.10
2018-02-04T13:20:50.699Z,3.10
2018-02-04T13:23:20.108Z,3.10
2018-02-04T13:25:49.519Z,3.30
2018-02-04T13:28:18.912Z,3.40
2018-02-04T13:30:48.311Z,3.40
2018-02-04T13:33:17.716Z,3.50
2018-02-04T13:35:47.122Z,3.50
2018-02-04T13:38:16.517Z,3.30
2018-02-04T13:40:46.365Z,3.10
2018-02-04T13:43:15.790Z,3.10
2018-02-04T13:45:45.209Z,3.00
2018-02-04T13:48:14.628Z,3.00
2018-02-04T13:50:44.121Z,3.10
2018-02-04T13:53:13.571Z,3.20
2018-02-04T13:55:42.995Z,3.20
2018-02-04T13:58:12.397Z,3.30
2018-02-04T14:00:41.872Z,3.50
2018-02-04T14:03:11.278Z,3.70
2018-02-04T14:05:41.477Z,3.80
2018-02-04T14:08:11.063Z,3.80
2018-02-04T14:10:40.999Z,3.80
2018-02-04T14:13:10.405Z,3.80
2018-02-04T14:15:39.788Z,3.70
2018-02-04T14:18:09.962Z,3.40
2018-02-04T14:20:39.376Z,3.30
2018-02-04T14:23:08.781Z,3.30
2018-02-04T14:25:37.656Z,3.30
2018-02-04T14:28:07.833Z,3.20
2018-02-04T14:30:37.269Z,3.20
2018-02-04T14:33:06.677Z,3.20
2018-02-04T14:35:36.084Z,3.20
2018-02-04T14:38:05.893Z,3.20
2018-02-04T14:40:35.264Z,3.10
2018-02-04T14:43:05.451Z,3.00
2018-02-04T14:45:34.872Z,3.00
2018-02-04T14:48:04.172Z,2.90
2018-02-04T14:50:33.586Z,2.80
2018-02-04T14:53:03.018Z,2.60
2018-02-04T14:55:32.420Z,2.60
2018-02-04T14:58:01.844Z,2.50
2018-02-04T15:00:31.240Z,2.60
2018-02-04T15:03:00.638Z,2.60
2018-02-04T15:05:29.896Z,2.80
2018-02-04T15:07:59.524Z,2.90
2018-02-04T15:10:28.924Z,3.10
2018-02-04T15:12:59.294Z,3.30
2018-02-04T15:15:28.639Z,3.30
2018-02-04T15:17:58.062Z,3.10
2018-02-04T15:20:27.475Z,3.00
2018-02-04T15:22:56.684Z,2.90
2018-02-04T15:25:26.139Z,2.90
2018-02-04T15:27:55.540Z,3.00
2018-02-04T15:30:24.956Z,3.00
2018-02-04T15:32:54.356Z,3.00
2018-02-04T15:35:23.763Z,2.90
2018-02-04T15:37:53.156Z,3.00
2018-02-04T15:40:23.321Z,2.90
2018-02-04T15:42:52.983Z,2.80
2018-02-04T15:45:22.393Z,2.80
2018-02-04T15:47:51.983Z,2.70
2018-02-04T15:50:21.365Z,2.70
2018-02-04T15:52:50.906Z,2.70
2018-02-04T15:55:20.284Z,2.70
2018-02-04T15:57:50.472Z,2.70
2018-02-04T16:00:19.933Z,2.60
2018-02-04T16:02:50.096Z,2.60
2018-02-04T16:05:19.532Z,2.60
2018-02-04T16:07:48.954Z,2.70
2018-02-04T16:10:18.360Z,2.70
2018-02-04T16:12:47.767Z,2.60
2018-02-04T16:15:17.171Z,2.60
2018-02-04T16:17:46.605Z,2.50
2018-02-04T16:20:15.989Z,2.50
2018-02-04T16:22:45.397Z,2.40
2018-02-04T16:25:15.568Z,2.30
2018-02-04T16:27:44.993Z,2.30
2018-02-04T16:30:14.414Z,2.30
2018-02-04T16:32:43.816Z,2.30
2018-02-04T16:35:13.220Z,2.20
2018-02-04T16:37:42.686Z,2.10
2018-02-04T16:40:12.076Z,2.00
2018-02-04T16:42:41.495Z,2.00
2018-02-04T16:45:10.899Z,2.00
2018-02-04T16:47:40.321Z,1.90
2018-02-04T16:50:09.749Z,1.90
2018-02-04T16:52:39.149Z,1.80
2018-02-04T16:55:08.559Z,1.70
2018-02-04T16:57:37.296Z,1.70
2018-02-04T17:00:07.159Z,1.80
2018-02-04T17:02:36.600Z,1.80
2018-02-04T17:05:06.005Z,1.70
2018-02-04T17:07:35.414Z,1.70
2018-02-04T17:10:04.205Z,1.70
2018-02-04T17:12:33.612Z,1.70
2018-02-04T17:15:03.014Z,1.70
2018-02-04T17:17:32.475Z,1.60
2018-02-04T17:20:01.953Z,1.60
2018-02-04T17:22:31.065Z,1.50
2018-02-04T17:25:00.522Z,1.50
2018-02-04T17:27:29.922Z,1.40
2018-02-04T17:29:59.332Z,1.40
2018-02-04T17:32:28.748Z,1.40
2018-02-04T17:34:58.148Z,1.40
2018-02-04T17:37:27.562Z,1.30
2018-02-04T17:39:56.770Z,1.30
2018-02-04T17:42:26.173Z,1.40
2018-02-04T17:44:55.390Z,1.40
2018-02-04T17:47:24.804Z,1.40
2018-02-04T17:49:53.687Z,1.40
2018-02-04T17:52:22.902Z,1.40
2018-02-04T17:54:52.309Z,1.40
2018-02-04T17:57:21.717Z,1.40
2018-02-04T17:59:51.121Z,1.40
2018-02-04T18:02:19.937Z,1.40
2018-02-04T18:04:50.105Z,1.30
2018-02-04T18:07:19.260Z,1.30
2018-02-04T18:09:48.393Z,1.30
2018-02-04T18:12:18.560Z,1.30
2018-02-04T18:14:47.966Z,1.30
2018-02-04T18:17:17.392Z,1.30
2018-02-04T18:19:46.792Z,1.30
2018-02-04T18:22:15.902Z,1.30
2018-02-04T18:24:45.028Z,1.30
2018-02-04T18:27:14.172Z,1.30
2018-02-04T18:29:43.596Z,1.20
2018-02-04T18:32:15.153Z,1.30
2018-02-04T18:34:45.391Z,1.40
2018-02-04T18:37:14.792Z,1.40
2018-02-04T18:39:44.268Z,1.40
2018-02-04T18:42:13.352Z,1.50
2018-02-04T18:44:42.439Z,1.40
2018-02-04T18:47:11.573Z,1.40
2018-02-04T18:49:40.798Z,1.40
2018-02-04T18:52:10.199Z,1.40
2018-02-04T18:54:39.603Z,1.30
2018-02-04T18:57:09.023Z,1.30
2018-02-04T18:59:38.440Z,1.30
2018-02-04T19:02:07.881Z,1.30
2018-02-04T19:04:37.006Z,1.30
2018-02-04T19:07:06.423Z,1.30
2018-02-04T19:09:35.845Z,1.20
2018-02-04T19:12:04.937Z,1.20
2018-02-04T19:14:34.348Z,1.20
2018-02-04T19:17:03.752Z,1.30
2018-02-04T19:19:33.169Z,1.30
2018-02-04T19:22:02.577Z,1.30
2018-02-04T19:24:32.293Z,1.30
2018-02-04T19:27:01.751Z,1.30
2018-02-04T19:29:31.192Z,1.30
2018-02-04T19:32:00.593Z,1.30
2018-02-04T19:34:30.308Z,1.30
2018-02-04T19:36:59.244Z,1.30
2018-02-04T19:39:28.740Z,1.40
2018-02-04T19:41:59.005Z,1.50
2018-02-04T19:44:29.312Z,1.40
2018-02-04T19:46:59.506Z,1.50
2018-02-04T19:49:28.916Z,1.40
2018-02-04T19:51:58.347Z,1.40
2018-02-04T19:54:27.761Z,1.40
2018-02-04T19:56:57.188Z,1.50
2018-02-04T19:59:26.669Z,1.50
2018-02-04T20:01:56.087Z,1.50
2018-02-04T20:04:25.300Z,1.60
2018-02-04T20:06:54.713Z,1.60
2018-02-04T20:09:24.128Z,1.60
2018-02-04T20:11:53.513Z,1.50
2018-02-04T20:14:22.949Z,1.50
2018-02-04T20:16:52.344Z,1.40
2018-02-04T20:19:21.769Z,1.40
2018-02-04T20:21:51.168Z,1.40
2018-02-04T20:24:20.584Z,1.40
2018-02-04T20:26:52.945Z,1.40
2018-02-04T20:29:22.369Z,1.40
2018-02-04T20:31:52.345Z,1.40
2018-02-04T20:34:33.017Z,1.40
2018-02-04T20:37:02.145Z,1.40
2018-02-04T20:39:31.545Z,1.40
2018-02-04T20:42:01.741Z,1.50
2018-02-04T20:44:31.905Z,1.50
2018-02-04T20:47:01.392Z,1.50
2018-02-04T20:49:31.566Z,1.50
2018-02-04T20:52:00.526Z,1.50
2018-02-04T20:54:30.691Z,1.50
2018-02-04T20:56:59.848Z,1.50
2018-02-04T20:59:29.264Z,1.50
2018-02-04T21:01:58.691Z,1.50
2018-02-04T21:04:28.891Z,1.60
2018-02-04T21:06:59.846Z,1.60
2018-02-04T21:09:28.856Z,1.60
2018-02-04T21:11:58.262Z,1.60
2018-02-04T21:14:28.168Z,1.60
2018-02-04T21:16:57.576Z,1.60
2018-02-04T21:19:26.993Z,1.60
2018-02-04T21:21:56.216Z,1.60
2018-02-04T21:24:25.493Z,1.60
2018-02-04T21:26:55.082Z,1.60
2018-02-04T21:29:25.265Z,1.60
2018-02-04T21:31:54.664Z,1.50
2018-02-04T21:34:24.107Z,1.60
2018-02-04T21:36:52.865Z,1.50
2018-02-04T21:39:22.300Z,1.50
2018-02-04T21:41:51.712Z,1.50
2018-02-04T21:44:21.152Z,1.50
2018-02-04T21:46:50.564Z,1.50
2018-02-04T21:49:19.991Z,1.50
2018-02-04T21:51:49.428Z,1.50
2018-02-04T21:54:19.321Z,1.50
2018-02-04T21:56:48.462Z,1.50
2018-02-04T21:59:17.874Z,1.50
2018-02-04T22:01:47.317Z,1.50
2018-02-04T22:04:17.510Z,1.50
2018-02-04T22:06:46.912Z,1.50
2018-02-04T22:09:16.330Z,1.50
2018-02-04T22:11:45.752Z,1.50
2018-02-04T22:14:15.156Z,1.60
2018-02-04T22:16:44.560Z,1.50
2018-02-04T22:19:13.977Z,1.50
2018-02-04T22:21:43.402Z,1.60
2018-02-04T22:24:12.627Z,1.60
2018-02-04T22:26:42.053Z,1.60
2018-02-04T22:29:11.281Z,1.60
2018-02-04T22:31:41.498Z,1.60
2018-02-04T22:34:10.918Z,1.60
2018-02-04T22:36:40.315Z,1.50
2018-02-04T22:39:09.741Z,1.50
2018-02-04T22:41:39.161Z,1.60
2018-02-04T22:44:09.987Z,1.50
2018-02-04T22:46:41.140Z,1.50
2018-02-04T22:49:10.565Z,1.50
2018-02-04T22:51:43.460Z,1.50
2018-02-04T22:54:12.697Z,1.50
2018-02-04T22:56:42.039Z,1.50
2018-02-04T22:59:11.259Z,1.50
2018-02-04T23:01:40.678Z,1.50
2018-02-04T23:04:09.768Z,1.50
2018-02-04T23:06:38.923Z,1.40
2018-02-04T23:09:08.325Z,1.40
2018-02-04T23:11:37.735Z,1.40
2018-02-04T23:14:07.166Z,1.40
2018-02-04T23:16:37.096Z,1.40
2018-02-04T23:19:06.624Z,1.30
2018-02-04T23:21:35.855Z,1.40
2018-02-04T23:24:06.136Z,1.30
2018-02-04T23:26:35.353Z,1.30
2018-02-04T23:29:04.749Z,1.30
2018-02-04T23:31:34.162Z,1.20
2018-02-04T23:34:03.584Z,1.20
2018-02-04T23:36:32.986Z,1.20
2018-02-04T23:39:02.404Z,1.20
2018-02-04T23:41:31.856Z,1.20
2018-02-04T23:44:01.284Z,1.20
2018-02-04T23:46:30.704Z,1.10
2018-02-04T23:49:00.132Z,1.10
2018-02-04T23:51:29.550Z,1.00
2018-02-04T23:53:59.746Z,1.00
2018-02-04T23:56:29.166Z,1.00
2018-02-04T23:58:58.603Z,0.90
